Time;durP1;ratioP1;P1;durP2;ratioP2;P2;SDS_P1;SDS_P2;PMS_P1;PMS_P2;Temp;Humidity;BMP_temperature;BMP_pressure;BME280_temperature;BME280_humidity;BME280_pressure;Samples;Min_cycle;Max_cycle;Signal;HPM_P1;HPM_P2
2023/08/20 00:02:12;;;;;;;9.60;6.83;;;19.40;99.90;;;;;;5060422;28;20449;-73
2023/08/20 00:04:40;;;;;;;13.07;9.20;;;19.40;99.90;;;;;;5069112;28;20960;-72
2023/08/20 00:07:08;;;;;;;8.90;8.00;;;19.40;99.90;;;;;;5061565;28;20529;-72
2023/08/20 00:09:36;;;;;;;9.73;7.30;;;19.30;99.90;;;;;;5065121;28;20456;-73
2023/08/20 00:12:05;;;;;;;12.20;8.33;;;19.30;99.90;;;;;;5066291;28;20453;-71
2023/08/20 00:14:56;;;;;;;11.97;7.27;;;19.30;99.90;;;;;;5066691;28;20456;-71
2023/08/20 00:17:24;;;;;;;8.27;6.20;;;19.30;99.90;;;;;;5064464;28;20496;-73
2023/08/20 00:19:51;;;;;;;10.07;7.53;;;19.30;99.90;;;;;;5062171;28;20500;-72
2023/08/20 00:22:21;;;;;;;8.60;7.10;;;19.40;99.90;;;;;;5059481;28;20452;-73
2023/08/20 00:24:49;;;;;;;7.87;6.50;;;19.30;99.90;;;;;;5061956;28;20478;-72
2023/08/20 00:27:16;;;;;;;12.43;7.10;;;19.30;99.90;;;;;;5062575;28;20437;-71
2023/08/20 00:29:43;;;;;;;17.50;8.27;;;19.30;99.90;;;;;;5063442;28;20444;-72
2023/08/20 00:32:11;;;;;;;13.83;8.63;;;19.20;99.90;;;;;;5063693;28;20448;-73
2023/08/20 00:34:38;;;;;;;9.93;7.40;;;19.30;99.90;;;;;;5065312;28;20814;-73
2023/08/20 00:37:05;;;;;;;14.30;7.40;;;19.20;99.90;;;;;;5061869;28;20445;-74
2023/08/20 00:39:33;;;;;;;10.27;7.03;;;19.20;99.90;;;;;;5065168;28;20528;-73
2023/08/20 00:42:00;;;;;;;9.37;6.57;;;19.20;99.90;;;;;;5064013;28;20529;-73
2023/08/20 00:44:27;;;;;;;10.03;6.90;;;19.20;99.90;;;;;;5064440;28;20532;-74
2023/08/20 00:46:54;;;;;;;8.63;6.97;;;19.20;99.90;;;;;;5064630;28;20964;-72
2023/08/20 00:49:23;;;;;;;11.20;7.50;;;19.10;99.90;;;;;;5065661;28;20452;-74
2023/08/20 00:51:52;;;;;;;9.40;6.97;;;19.10;99.90;;;;;;5068051;28;20430;-72
2023/08/20 00:54:19;;;;;;;10.80;7.50;;;19.10;99.90;;;;;;5067251;28;20792;-71
2023/08/20 00:56:46;;;;;;;11.83;7.90;;;19.10;99.90;;;;;;5063524;28;20475;-72
2023/08/20 00:59:14;;;;;;;10.90;8.20;;;19.10;99.90;;;;;;5061817;28;20485;-70
2023/08/20 01:01:41;;;;;;;8.17;6.60;;;19.10;99.90;;;;;;5059908;28;20529;-72
2023/08/20 01:04:08;;;;;;;8.90;6.87;;;19.00;99.90;;;;;;5051433;28;20549;-72
2023/08/20 01:06:45;;;;;;;10.93;6.63;;;19.00;99.90;;;;;;5049904;28;20443;-75
2023/08/20 01:09:22;;;;;;;10.00;6.80;;;19.00;99.90;;;;;;5066888;28;20528;-72
2023/08/20 01:11:58;;;;;;;8.17;7.30;;;19.00;99.90;;;;;;5066569;28;20524;-72
2023/08/20 01:14:25;;;;;;;12.63;8.67;;;19.00;99.90;;;;;;5051075;28;20977;-72
2023/08/20 01:16:52;;;;;;;14.03;9.70;;;19.00;99.90;;;;;;5051315;28;20440;-72
2023/08/20 01:19:22;;;;;;;11.73;10.30;;;19.00;99.90;;;;;;5045259;28;20486;-72
2023/08/20 01:22:06;;;;;;;13.67;10.60;;;18.90;99.90;;;;;;5065833;28;20477;-73
2023/08/20 01:24:47;;;;;;;16.73;13.67;;;18.80;99.90;;;;;;5055707;28;20832;-72
2023/08/20 01:27:45;;;;;;;22.10;16.83;;;18.80;99.90;;;;;;5063453;28;20453;-72
2023/08/20 01:30:13;;;;;;;15.57;13.70;;;18.70;99.90;;;;;;5055925;28;20466;-73
2023/08/20 01:32:42;;;;;;;16.93;14.17;;;18.70;99.90;;;;;;5064777;28;20481;-71
2023/08/20 01:35:13;;;;;;;16.83;13.17;;;18.60;99.90;;;;;;5062863;28;20457;-73
2023/08/20 01:37:41;;;;;;;16.77;14.87;;;18.60;99.90;;;;;;5066302;28;20551;-73
2023/08/20 01:40:10;;;;;;;18.03;14.90;;;18.60;99.90;;;;;;5055985;28;20448;-73
2023/08/20 01:42:37;;;;;;;21.20;17.40;;;18.60;99.90;;;;;;5058459;28;20454;-70
2023/08/20 01:45:05;;;;;;;21.27;18.53;;;18.60;99.90;;;;;;5063490;28;20549;-73
2023/08/20 01:47:34;;;;;;;23.90;20.23;;;18.50;99.90;;;;;;5062898;28;20440;-71
2023/08/20 01:50:01;;;;;;;24.53;17.17;;;18.40;99.90;;;;;;5064744;28;20486;-72
2023/08/20 01:52:29;;;;;;;17.40;15.23;;;18.40;99.90;;;;;;5065204;28;20441;-71
2023/08/20 01:54:56;;;;;;;21.63;19.40;;;18.30;99.90;;;;;;5057290;28;20480;-71
2023/08/20 01:57:23;;;;;;;21.00;15.83;;;18.30;99.90;;;;;;5058680;28;20892;-74
2023/08/20 01:59:50;;;;;;;27.40;18.90;;;18.30;99.90;;;;;;5060467;28;20437;-72
2023/08/20 02:02:17;;;;;;;20.03;17.90;;;18.20;99.90;;;;;;5063391;28;20440;-70
2023/08/20 02:04:45;;;;;;;25.87;19.80;;;18.20;99.90;;;;;;5060145;28;20457;-72
2023/08/20 02:07:12;;;;;;;26.50;18.80;;;18.20;99.90;;;;;;5062501;28;20478;-72
2023/08/20 02:09:39;;;;;;;29.77;21.60;;;18.20;99.90;;;;;;5054617;28;21159;-72
2023/08/20 02:12:06;;;;;;;24.13;18.50;;;18.10;99.90;;;;;;5055852;28;20521;-72
2023/08/20 02:14:34;;;;;;;22.50;18.40;;;18.10;99.90;;;;;;5056009;28;20445;-71
2023/08/20 02:17:01;;;;;;;27.80;19.63;;;18.10;99.90;;;;;;5060998;28;20531;-72
2023/08/20 02:19:28;;;;;;;27.40;18.27;;;18.00;99.90;;;;;;5055907;28;20567;-74
2023/08/20 02:21:56;;;;;;;23.60;18.03;;;18.00;99.90;;;;;;5065121;28;20497;-73
2023/08/20 02:24:38;;;;;;;25.57;18.17;;;18.00;99.90;;;;;;5053233;28;20891;-73
2023/08/20 02:27:05;;;;;;;26.17;19.00;;;18.00;99.90;;;;;;5058182;28;20525;-73
2023/08/20 02:29:32;;;;;;;21.80;16.37;;;17.90;99.90;;;;;;5063406;28;20436;-72
2023/08/20 02:31:59;;;;;;;21.17;15.43;;;17.90;99.90;;;;;;5065565;28;20481;-73
2023/08/20 02:34:26;;;;;;;20.10;16.10;;;17.90;99.90;;;;;;5057525;28;20540;-72
2023/08/20 02:36:53;;;;;;;19.30;15.63;;;17.90;99.90;;;;;;5065032;28;20494;-73
2023/08/20 02:39:21;;;;;;;18.13;16.23;;;17.90;99.90;;;;;;5062931;28;20486;-72
2023/08/20 02:41:48;;;;;;;21.37;16.10;;;17.90;99.90;;;;;;5060984;28;20441;-72
2023/08/20 02:44:15;;;;;;;25.27;17.83;;;17.90;99.90;;;;;;5064286;28;20471;-72
2023/08/20 02:46:44;;;;;;;20.10;17.57;;;17.80;99.90;;;;;;5065498;28;20472;-72
2023/08/20 02:49:11;;;;;;;22.53;17.20;;;17.80;99.90;;;;;;5065482;28;20445;-72
2023/08/20 02:51:39;;;;;;;16.60;14.87;;;17.80;99.90;;;;;;5051919;28;20792;-72
2023/08/20 02:54:06;;;;;;;20.13;16.97;;;17.80;99.90;;;;;;5057586;28;20480;-72
2023/08/20 02:56:34;;;;;;;21.70;19.30;;;17.70;99.90;;;;;;5061011;28;20788;-73
2023/08/20 02:59:01;;;;;;;21.97;17.87;;;17.70;99.90;;;;;;5066757;28;20471;-72
2023/08/20 03:01:37;;;;;;;19.30;15.50;;;17.70;99.90;;;;;;5063555;28;20441;-72
2023/08/20 03:04:04;;;;;;;16.33;14.67;;;17.60;99.90;;;;;;5062728;28;20549;-72
2023/08/20 03:06:42;;;;;;;20.47;15.80;;;17.60;99.90;;;;;;5059684;28;20440;-73
2023/08/20 03:09:09;;;;;;;23.23;15.87;;;17.60;99.90;;;;;;5043579;28;20468;-71
2023/08/20 03:11:48;;;;;;;15.10;13.50;;;17.60;99.90;;;;;;5064038;28;20445;-73
2023/08/20 03:14:14;;;;;;;20.53;14.07;;;17.60;99.90;;;;;;5055264;28;20982;-73
2023/08/20 03:16:41;;;;;;;15.90;13.13;;;17.60;99.90;;;;;;5059768;28;20813;-72
2023/08/20 03:19:08;;;;;;;15.10;12.73;;;17.60;99.90;;;;;;5055808;28;20561;-73
2023/08/20 03:21:35;;;;;;;14.77;13.27;;;17.70;99.90;;;;;;5063726;28;20524;-72
2023/08/20 03:24:03;;;;;;;18.53;15.20;;;17.70;99.90;;;;;;5068806;28;20461;-73
2023/08/20 03:26:30;;;;;;;18.87;13.70;;;17.70;99.90;;;;;;5068533;28;20802;-72
2023/08/20 03:28:58;;;;;;;20.40;14.70;;;17.70;99.90;;;;;;5059705;28;20520;-73
2023/08/20 03:31:26;;;;;;;18.90;15.17;;;17.70;99.90;;;;;;5065967;28;20454;-72
2023/08/20 03:33:53;;;;;;;17.43;14.07;;;17.70;99.90;;;;;;5058764;28;20893;-72
2023/08/20 03:36:19;;;;;;;15.07;12.90;;;17.60;99.90;;;;;;5054702;28;20952;-73
2023/08/20 03:38:46;;;;;;;16.67;14.40;;;17.70;99.90;;;;;;5062278;28;20480;-69
2023/08/20 03:41:13;;;;;;;16.20;13.97;;;17.60;99.90;;;;;;5061891;28;20547;-72
2023/08/20 03:43:40;;;;;;;16.23;13.13;;;17.60;99.90;;;;;;5069467;28;20979;-72
2023/08/20 03:46:08;;;;;;;17.80;12.57;;;17.60;99.90;;;;;;5065903;28;20531;-72
2023/08/20 03:48:35;;;;;;;20.70;13.60;;;17.60;99.90;;;;;;5065091;28;20439;-72
2023/08/20 03:51:02;;;;;;;17.90;12.70;;;17.60;99.90;;;;;;5062525;28;20460;-75
2023/08/20 03:53:29;;;;;;;18.30;13.53;;;17.50;99.90;;;;;;5062985;28;20503;-73
2023/08/20 03:55:56;;;;;;;15.13;12.00;;;17.60;99.90;;;;;;5069386;28;20543;-72
2023/08/20 03:58:23;;;;;;;16.90;11.83;;;17.60;99.90;;;;;;5063739;28;20477;-71
2023/08/20 04:00:50;;;;;;;20.87;15.20;;;17.50;99.90;;;;;;5069789;28;20517;-72
2023/08/20 04:03:20;;;;;;;19.27;14.00;;;17.50;99.90;;;;;;5053823;28;20516;-73
2023/08/20 04:05:47;;;;;;;13.43;10.87;;;17.50;99.90;;;;;;5062762;28;20438;-73
2023/08/20 04:08:14;;;;;;;17.30;14.43;;;17.50;99.90;;;;;;5064613;28;20487;-70
2023/08/20 04:10:45;;;;;;;20.23;14.93;;;17.50;99.90;;;;;;5064275;28;20477;-72
2023/08/20 04:13:13;;;;;;;22.60;13.10;;;17.50;99.90;;;;;;5073725;28;20467;-72
2023/08/20 04:15:41;;;;;;;14.97;12.57;;;17.50;99.90;;;;;;5063129;28;20507;-72
2023/08/20 04:18:08;;;;;;;19.13;14.60;;;17.50;99.90;;;;;;5061425;28;20920;-71
2023/08/20 04:20:37;;;;;;;17.93;12.43;;;17.50;99.90;;;;;;5062212;28;20446;-72
2023/08/20 04:23:04;;;;;;;13.67;12.27;;;17.50;99.90;;;;;;5060766;28;20481;-71
2023/08/20 04:25:31;;;;;;;14.53;12.67;;;17.50;99.90;;;;;;5066368;28;20535;-70
2023/08/20 04:27:58;;;;;;;16.83;15.03;;;17.60;99.90;;;;;;5059866;28;20456;-73
2023/08/20 04:30:25;;;;;;;15.27;13.77;;;17.60;99.90;;;;;;5066570;28;20535;-71
2023/08/20 04:32:52;;;;;;;17.47;15.00;;;17.60;99.90;;;;;;5057012;28;20446;-71
2023/08/20 04:35:20;;;;;;;15.20;13.00;;;17.50;99.90;;;;;;5073037;28;20429;-72
2023/08/20 04:37:48;;;;;;;15.43;13.90;;;17.60;99.90;;;;;;5056210;28;20475;-72
2023/08/20 04:40:15;;;;;;;16.17;14.23;;;17.60;99.90;;;;;;5062295;28;20570;-73
2023/08/20 04:42:42;;;;;;;17.73;14.10;;;17.60;99.90;;;;;;5059101;28;20528;-71
2023/08/20 04:45:10;;;;;;;17.47;14.07;;;17.60;99.90;;;;;;5056240;28;20553;-71
2023/08/20 04:47:37;;;;;;;16.13;13.73;;;17.50;99.90;;;;;;5066212;28;20435;-73
2023/08/20 04:50:06;;;;;;;16.07;13.63;;;17.50;99.90;;;;;;5070520;28;20434;-72
2023/08/20 04:52:33;;;;;;;19.70;14.30;;;17.50;99.90;;;;;;5067686;28;20444;-70
2023/08/20 04:55:02;;;;;;;19.30;14.70;;;17.50;99.90;;;;;;5061248;28;20530;-71
2023/08/20 04:57:29;;;;;;;17.13;12.67;;;17.50;99.90;;;;;;5070219;28;20832;-72
2023/08/20 04:59:56;;;;;;;21.73;16.43;;;17.60;99.90;;;;;;5062273;28;20479;-72
2023/08/20 05:02:22;;;;;;;17.77;14.27;;;17.60;99.90;;;;;;5068977;28;20529;-72
2023/08/20 05:04:50;;;;;;;18.43;14.77;;;17.70;99.90;;;;;;5066792;28;20518;-72
2023/08/20 05:07:17;;;;;;;20.27;13.93;;;17.70;99.90;;;;;;5053671;28;20866;-72
2023/08/20 05:09:44;;;;;;;17.90;13.40;;;17.90;99.90;;;;;;5060019;28;20444;-72
2023/08/20 05:12:12;;;;;;;18.07;14.83;;;18.00;99.90;;;;;;5060117;28;20532;-72
2023/08/20 05:14:39;;;;;;;18.10;15.30;;;18.00;99.90;;;;;;5064137;28;21009;-72
2023/08/20 05:17:06;;;;;;;15.27;12.60;;;18.20;99.90;;;;;;5065851;28;20447;-71
2023/08/20 05:19:43;;;;;;;13.40;12.00;;;18.80;99.90;;;;;;5054281;28;20483;-72
2023/08/20 05:22:11;;;;;;;12.20;10.60;;;19.60;99.90;;;;;;5061238;28;20529;-72
2023/08/20 05:24:38;;;;;;;14.37;8.80;;;20.50;99.90;;;;;;5060565;28;20465;-72
2023/08/20 05:27:09;;;;;;;14.13;9.60;;;21.40;99.90;;;;;;5065749;28;21015;-72
2023/08/20 05:29:38;;;;;;;11.90;9.57;;;22.30;99.90;;;;;;5064503;28;20438;-73
2023/08/20 05:32:05;;;;;;;11.60;9.97;;;23.00;99.90;;;;;;5066529;28;20445;-72
2023/08/20 05:34:32;;;;;;;13.20;9.93;;;23.60;99.90;;;;;;5065398;28;20888;-72
2023/08/20 05:36:59;;;;;;;13.27;8.10;;;24.10;99.90;;;;;;5069792;28;20442;-70
2023/08/20 05:39:26;;;;;;;11.43;10.20;;;25.10;99.90;;;;;;5063142;28;20847;-72
2023/08/20 05:41:53;;;;;;;11.63;10.37;;;25.80;99.90;;;;;;5064667;28;20793;-71
2023/08/20 05:44:20;;;;;;;11.33;9.63;;;26.10;99.90;;;;;;5064587;28;20936;-70
2023/08/20 05:46:49;;;;;;;9.43;8.13;;;26.20;99.90;;;;;;5068110;28;20455;-71
2023/08/20 05:49:16;;;;;;;10.13;8.10;;;26.90;99.90;;;;;;5068553;28;20468;-72
2023/08/20 05:51:43;;;;;;;10.33;9.00;;;26.80;99.90;;;;;;5060575;28;20450;-70
2023/08/20 05:54:10;;;;;;;12.20;8.70;;;27.00;99.90;;;;;;5069492;28;20554;-72
2023/08/20 05:56:37;;;;;;;8.70;6.77;;;27.20;99.90;;;;;;5062242;28;20451;-72
2023/08/20 05:59:04;;;;;;;10.10;7.97;;;27.70;99.90;;;;;;5061414;28;20500;-74
2023/08/20 06:01:32;;;;;;;11.10;8.87;;;28.10;99.70;;;;;;5057001;28;20440;-72
2023/08/20 06:04:01;;;;;;;12.30;8.40;;;28.30;98.50;;;;;;5060457;28;20493;-71
2023/08/20 06:06:28;;;;;;;8.20;6.63;;;28.50;97.90;;;;;;5065646;28;20440;-73
2023/08/20 06:08:55;;;;;;;11.20;7.13;;;29.10;97.10;;;;;;5063744;28;21017;-72
2023/08/20 06:11:22;;;;;;;9.47;7.50;;;29.70;95.30;;;;;;5064640;28;20443;-72
2023/08/20 06:13:49;;;;;;;8.63;7.07;;;29.60;94.20;;;;;;5067239;28;20565;-72
2023/08/20 06:16:16;;;;;;;8.30;5.77;;;30.00;94.20;;;;;;5065574;28;20433;-72
2023/08/20 06:18:42;;;;;;;8.20;7.40;;;30.20;93.30;;;;;;5062180;28;20589;-71
2023/08/20 06:21:11;;;;;;;10.07;7.27;;;30.30;92.10;;;;;;5051985;28;20452;-71
2023/08/20 06:23:38;;;;;;;9.73;7.07;;;29.90;92.90;;;;;;5066437;28;20515;-71
2023/08/20 06:26:05;;;;;;;10.00;6.60;;;29.80;92.20;;;;;;5060988;28;20446;-70
2023/08/20 06:28:32;;;;;;;8.30;7.13;;;29.30;93.10;;;;;;5065511;28;20472;-72
2023/08/20 06:30:59;;;;;;;8.10;6.57;;;29.60;93.20;;;;;;5062931;28;20438;-73
2023/08/20 06:33:26;;;;;;;7.10;6.00;;;29.70;93.00;;;;;;5063718;28;20469;-73
2023/08/20 06:35:52;;;;;;;7.53;6.00;;;30.50;92.10;;;;;;5059377;28;20447;-73
2023/08/20 06:38:21;;;;;;;9.60;6.37;;;30.60;91.60;;;;;;5054799;28;20439;-73
2023/08/20 06:40:48;;;;;;;8.97;5.87;;;31.00;91.10;;;;;;5057019;28;20566;-74
2023/08/20 06:43:14;;;;;;;8.03;5.30;;;31.00;90.40;;;;;;5058187;28;20572;-72
2023/08/20 06:45:41;;;;;;;8.10;5.30;;;31.00;91.10;;;;;;5064259;28;20531;-72
2023/08/20 06:48:08;;;;;;;6.40;5.07;;;31.20;90.10;;;;;;5056799;28;20446;-72
2023/08/20 06:50:35;;;;;;;5.23;4.40;;;31.50;90.00;;;;;;5059275;28;20438;-73
2023/08/20 06:53:02;;;;;;;11.97;5.47;;;30.70;90.20;;;;;;5057764;28;20517;-72
2023/08/20 06:55:30;;;;;;;7.17;5.00;;;30.50;90.70;;;;;;5065870;28;20473;-72
2023/08/20 06:57:57;;;;;;;8.77;5.03;;;31.20;90.80;;;;;;5062450;28;20473;-72
2023/08/20 07:00:24;;;;;;;4.93;4.10;;;31.90;89.40;;;;;;5055458;28;21059;-72
2023/08/20 07:02:51;;;;;;;11.97;7.63;;;32.50;88.00;;;;;;5064905;28;20476;-72
2023/08/20 07:05:18;;;;;;;16.50;14.80;;;32.60;87.70;;;;;;5061536;28;20450;-72
2023/08/20 07:07:46;;;;;;;12.10;8.53;;;33.00;86.70;;;;;;5066303;28;20433;-73
2023/08/20 07:10:13;;;;;;;10.57;7.17;;;32.90;86.10;;;;;;5063151;28;20839;-73
2023/08/20 07:12:41;;;;;;;9.67;7.60;;;32.90;85.30;;;;;;5055164;28;20932;-73
2023/08/20 07:15:09;;;;;;;9.60;8.20;;;32.80;85.50;;;;;;5056708;28;20458;-73
2023/08/20 07:17:35;;;;;;;24.20;19.20;;;32.90;84.90;;;;;;5062065;28;20445;-73
2023/08/20 07:20:03;;;;;;;19.73;16.77;;;33.40;85.30;;;;;;5060478;28;20814;-73
2023/08/20 07:22:30;;;;;;;9.93;8.37;;;33.20;83.70;;;;;;5057375;28;20441;-74
2023/08/20 07:24:57;;;;;;;8.73;5.13;;;33.50;83.50;;;;;;5066132;28;20543;-73
2023/08/20 07:27:24;;;;;;;12.73;11.50;;;33.10;84.50;;;;;;5060961;28;20446;-73
2023/08/20 07:29:52;;;;;;;12.57;11.20;;;33.30;84.00;;;;;;5066932;28;20528;-74
2023/08/20 07:32:19;;;;;;;5.50;4.00;;;33.10;84.00;;;;;;5065216;28;20519;-73
2023/08/20 07:34:46;;;;;;;9.40;5.30;;;33.20;83.90;;;;;;5063298;28;20453;-74
2023/08/20 07:37:13;;;;;;;5.37;4.47;;;32.70;84.10;;;;;;5066355;28;20445;-72
2023/08/20 07:39:40;;;;;;;6.03;4.20;;;32.80;86.00;;;;;;5053297;28;20570;-73
2023/08/20 07:42:07;;;;;;;4.17;2.90;;;33.30;85.90;;;;;;5062991;28;20442;-75
2023/08/20 07:44:34;;;;;;;6.73;3.50;;;34.30;83.40;;;;;;5063903;28;20793;-72
2023/08/20 07:47:03;;;;;;;6.20;3.97;;;34.80;81.10;;;;;;5056703;28;20446;-72
2023/08/20 07:49:30;;;;;;;4.90;3.40;;;34.80;80.50;;;;;;5065770;28;20437;-75
2023/08/20 07:51:57;;;;;;;5.67;4.00;;;34.80;80.60;;;;;;5057730;28;20512;-74
2023/08/20 07:54:24;;;;;;;11.83;8.13;;;34.60;80.50;;;;;;5067237;28;20475;-75
2023/08/20 07:56:51;;;;;;;10.30;6.97;;;34.60;80.00;;;;;;5063098;28;20463;-73
2023/08/20 07:59:18;;;;;;;25.90;23.13;;;33.90;79.90;;;;;;5061110;28;20776;-74
2023/08/20 08:01:44;;;;;;;15.80;12.63;;;33.70;81.10;;;;;;5051869;28;20452;-74
2023/08/20 08:04:13;;;;;;;46.57;40.97;;;33.80;81.10;;;;;;5062565;28;20553;-74
2023/08/20 08:06:40;;;;;;;7.27;3.33;;;34.00;81.50;;;;;;5059099;28;20492;-74
2023/08/20 08:09:21;;;;;;;8.73;5.13;;;33.90;81.90;;;;;;5058569;28;20525;-74
2023/08/20 08:11:49;;;;;;;9.70;2.90;;;34.40;80.20;;;;;;5055143;28;20441;-74
2023/08/20 08:14:16;;;;;;;10.97;7.27;;;34.00;80.10;;;;;;5065214;28;20492;-74
2023/08/20 08:16:43;;;;;;;4.50;2.90;;;34.10;80.30;;;;;;5043274;28;20456;-74
2023/08/20 08:19:10;;;;;;;9.60;4.60;;;33.70;80.00;;;;;;5058339;28;20876;-74
2023/08/20 08:21:38;;;;;;;7.07;3.03;;;33.50;81.50;;;;;;5058869;28;20565;-74
2023/08/20 08:24:06;;;;;;;9.00;4.70;;;33.90;80.40;;;;;;5054543;28;20486;-73
2023/08/20 08:26:35;;;;;;;7.43;4.77;;;33.70;80.30;;;;;;5050827;28;20504;-74
2023/08/20 08:29:03;;;;;;;10.50;4.20;;;34.20;80.50;;;;;;5058166;28;20450;-72
2023/08/20 08:31:30;;;;;;;34.53;27.60;;;34.90;79.20;;;;;;5054109;28;20447;-74
2023/08/20 08:33:58;;;;;;;33.57;29.90;;;34.70;77.70;;;;;;5059004;28;20524;-73
2023/08/20 08:36:25;;;;;;;28.00;23.23;;;34.30;79.90;;;;;;5067165;28;20459;-73
2023/08/20 08:38:54;;;;;;;24.27;21.67;;;34.80;79.40;;;;;;5061123;28;20437;-73
2023/08/20 08:41:24;;;;;;;6.90;5.30;;;35.30;78.30;;;;;;5057495;28;20954;-72
2023/08/20 08:43:51;;;;;;;5.70;3.37;;;35.40;77.60;;;;;;5052970;28;20466;-72
2023/08/20 08:46:19;;;;;;;9.43;3.83;;;35.50;76.20;;;;;;5063062;28;20532;-72
2023/08/20 08:48:48;;;;;;;8.17;4.50;;;35.70;76.10;;;;;;5069100;28;20473;-73
2023/08/20 08:51:15;;;;;;;11.37;7.00;;;36.50;75.70;;;;;;5056234;28;20462;-74
2023/08/20 08:53:44;;;;;;;9.37;4.97;;;36.70;73.80;;;;;;5059484;28;20540;-72
2023/08/20 08:56:13;;;;;;;6.60;3.27;;;36.80;73.70;;;;;;5064929;28;20711;-73
2023/08/20 08:58:40;;;;;;;5.20;3.70;;;36.30;73.80;;;;;;5048555;28;20444;-73
2023/08/20 09:01:08;;;;;;;5.87;3.70;;;36.00;73.70;;;;;;5062091;28;20496;-74
2023/08/20 09:03:36;;;;;;;7.00;4.10;;;36.40;74.20;;;;;;5057440;28;20484;-73
2023/08/20 09:06:08;;;;;;;8.67;3.70;;;37.00;73.60;;;;;;5063319;28;20441;-75
2023/08/20 09:08:35;;;;;;;6.60;5.03;;;37.20;72.50;;;;;;5055654;28;20442;-74
2023/08/20 09:11:03;;;;;;;4.37;2.93;;;37.20;72.80;;;;;;5055944;28;20517;-74
2023/08/20 09:13:37;;;;;;;8.53;5.73;;;36.70;71.90;;;;;;5053052;28;20564;-74
2023/08/20 09:16:08;;;;;;;10.77;6.23;;;36.00;73.30;;;;;;5062810;28;20462;-73
2023/08/20 09:18:39;;;;;;;4.80;3.53;;;35.60;73.80;;;;;;5063662;28;20505;-74
2023/08/20 09:21:08;;;;;;;9.70;8.27;;;35.50;75.00;;;;;;5060980;28;21056;-73
2023/08/20 09:23:35;;;;;;;15.87;10.40;;;35.20;74.20;;;;;;5063797;28;20469;-74
2023/08/20 09:26:03;;;;;;;6.53;4.23;;;35.00;75.40;;;;;;5056742;28;20533;-73
2023/08/20 09:28:30;;;;;;;9.83;4.50;;;34.80;76.70;;;;;;5068408;28;20521;-73
2023/08/20 09:31:02;;;;;;;5.77;4.40;;;34.70;77.50;;;;;;5063008;28;20968;-74
2023/08/20 09:33:29;;;;;;;6.73;4.10;;;34.60;76.60;;;;;;5065939;28;20541;-72
2023/08/20 09:35:56;;;;;;;5.60;3.40;;;34.90;76.70;;;;;;5068021;28;20909;-73
2023/08/20 09:38:24;;;;;;;17.70;13.83;;;35.30;76.70;;;;;;5056851;28;20474;-72
2023/08/20 09:40:56;;;;;;;7.50;3.93;;;35.60;75.60;;;;;;5055682;28;20470;-72
2023/08/20 09:43:26;;;;;;;11.70;6.70;;;35.60;74.90;;;;;;5050198;28;20488;-73
2023/08/20 09:45:56;;;;;;;7.30;4.80;;;35.00;75.30;;;;;;5059440;28;20932;-73
2023/08/20 09:48:27;;;;;;;10.23;5.77;;;33.90;76.70;;;;;;5053511;28;20473;-73
2023/08/20 09:50:59;;;;;;;5.80;4.10;;;33.90;79.60;;;;;;5061310;28;20429;-73
2023/08/20 09:53:28;;;;;;;9.90;6.37;;;33.90;79.70;;;;;;5057566;28;20503;-74
2023/08/20 09:56:02;;;;;;;9.17;3.93;;;34.10;78.90;;;;;;5051988;28;20446;-73
2023/08/20 09:58:32;;;;;;;22.93;18.93;;;34.10;78.30;;;;;;5063697;28;20515;-73
2023/08/20 10:00:59;;;;;;;7.37;3.57;;;34.20;79.20;;;;;;5059120;28;20578;-74
2023/08/20 10:03:28;;;;;;;8.83;4.53;;;34.20;79.40;;;;;;5042728;28;20537;-74
2023/08/20 10:05:56;;;;;;;8.20;4.03;;;33.60;78.70;;;;;;5061908;28;20920;-76
2023/08/20 10:08:23;;;;;;;7.87;4.13;;;34.00;80.40;;;;;;5054935;28;20441;-73
2023/08/20 10:10:50;;;;;;;6.20;4.30;;;34.30;79.40;;;;;;5062331;28;20455;-73
2023/08/20 10:13:18;;;;;;;5.43;4.70;;;34.30;78.30;;;;;;5054703;28;20965;-73
2023/08/20 10:15:46;;;;;;;4.93;4.07;;;33.50;79.70;;;;;;5053589;28;20786;-75
2023/08/20 10:18:13;;;;;;;6.37;4.10;;;32.40;82.40;;;;;;5063536;28;20453;-73
2023/08/20 10:20:42;;;;;;;8.77;4.70;;;32.00;84.40;;;;;;5050755;28;20482;-73
2023/08/20 10:23:12;;;;;;;8.30;4.63;;;31.70;84.90;;;;;;5065307;28;20485;-73
2023/08/20 10:25:43;;;;;;;6.43;4.30;;;30.80;86.60;;;;;;5054611;28;20849;-74
2023/08/20 10:28:15;;;;;;;7.17;4.93;;;30.60;88.40;;;;;;5055910;28;20818;-73
2023/08/20 10:31:07;;;;;;;6.20;4.60;;;30.70;88.20;;;;;;5056947;28;20445;-74
2023/08/20 10:33:35;;;;;;;8.20;5.07;;;30.90;87.70;;;;;;5056737;28;20816;-73
2023/08/20 10:36:15;;;;;;;13.13;5.10;;;30.70;89.20;;;;;;5065764;28;20478;-73
2023/08/20 10:38:42;;;;;;;7.90;4.87;;;30.80;89.10;;;;;;5073201;28;20471;-73
2023/08/20 10:41:09;;;;;;;9.80;4.87;;;31.10;88.20;;;;;;5065051;28;20557;-74
2023/08/20 10:43:38;;;;;;;8.70;4.90;;;31.10;88.00;;;;;;5070501;28;20514;-74
2023/08/20 10:46:15;;;;;;;10.00;5.07;;;30.90;89.50;;;;;;5050432;28;20453;-75
2023/08/20 10:48:42;;;;;;;7.63;4.43;;;31.00;90.40;;;;;;5074566;28;20445;-73
2023/08/20 10:51:16;;;;;;;7.47;5.10;;;31.10;89.50;;;;;;5062500;28;20981;-74
2023/08/20 10:53:50;;;;;;;9.70;5.80;;;30.90;90.00;;;;;;5052472;28;20493;-74
2023/08/20 10:56:18;;;;;;;9.03;5.40;;;30.40;90.00;;;;;;5063172;28;20807;-74
2023/08/20 10:58:47;;;;;;;11.63;5.83;;;29.70;91.00;;;;;;5059062;28;20434;-75
2023/08/20 11:01:19;;;;;;;10.60;5.57;;;29.40;91.80;;;;;;5063914;28;20533;-74
2023/08/20 11:03:46;;;;;;;11.03;7.07;;;29.40;92.20;;;;;;5051773;28;20464;-74
2023/08/20 11:06:15;;;;;;;8.83;5.80;;;29.60;92.20;;;;;;5061975;28;20536;-73
2023/08/20 11:08:43;;;;;;;7.13;5.33;;;30.00;91.90;;;;;;5057626;28;20537;-73
2023/08/20 11:11:10;;;;;;;8.27;5.87;;;30.00;91.70;;;;;;5060998;28;20441;-74
2023/08/20 11:13:37;;;;;;;8.73;5.67;;;30.00;91.50;;;;;;5062805;28;20457;-73
2023/08/20 11:16:07;;;;;;;8.10;5.87;;;29.80;91.70;;;;;;5063386;28;20868;-73
2023/08/20 11:18:34;;;;;;;8.87;6.00;;;29.80;91.90;;;;;;5056401;28;20559;-74
2023/08/20 11:21:02;;;;;;;8.23;4.77;;;29.80;91.90;;;;;;5053299;28;20477;-73
2023/08/20 11:23:31;;;;;;;8.50;5.20;;;29.90;91.80;;;;;;5058068;28;20474;-73
2023/08/20 11:26:00;;;;;;;8.97;5.90;;;30.00;91.70;;;;;;5047675;28;20446;-71
2023/08/20 11:28:29;;;;;;;8.63;5.47;;;29.30;91.40;;;;;;5059417;28;20452;-72
2023/08/20 11:30:57;;;;;;;8.00;4.97;;;29.20;92.60;;;;;;5053002;28;20545;-72
2023/08/20 11:33:26;;;;;;;5.47;4.80;;;29.40;92.70;;;;;;5056450;28;20780;-73
2023/08/20 11:35:53;;;;;;;5.47;3.83;;;29.60;91.70;;;;;;5060224;28;20449;-72
2023/08/20 11:38:23;;;;;;;5.10;3.87;;;29.60;91.90;;;;;;5058202;28;20495;-73
2023/08/20 11:40:52;;;;;;;6.80;4.13;;;29.40;91.50;;;;;;5062190;28;20477;-73
2023/08/20 11:43:19;;;;;;;8.87;4.67;;;29.50;92.30;;;;;;5056689;28;20488;-73
2023/08/20 11:45:50;;;;;;;8.27;5.83;;;29.70;92.10;;;;;;5061680;28;21058;-73
2023/08/20 11:48:17;;;;;;;10.77;5.80;;;30.00;91.90;;;;;;5052952;28;20446;-74
2023/08/20 11:50:45;;;;;;;6.57;3.67;;;30.00;91.60;;;;;;5063934;28;20433;-73
2023/08/20 11:53:12;;;;;;;6.70;4.60;;;29.90;91.00;;;;;;5054264;28;20466;-73
2023/08/20 11:55:41;;;;;;;8.30;5.40;;;29.90;90.70;;;;;;5062954;28;20451;-73
2023/08/20 11:58:12;;;;;;;9.40;4.50;;;30.00;90.80;;;;;;5059089;28;20441;-72
2023/08/20 12:00:39;;;;;;;7.00;4.93;;;29.90;91.00;;;;;;5059754;28;20447;-73
2023/08/20 12:03:07;;;;;;;6.33;4.33;;;29.80;91.40;;;;;;5059175;28;20521;-73
2023/08/20 12:05:34;;;;;;;7.57;4.60;;;30.00;91.50;;;;;;5063116;28;20507;-75
2023/08/20 12:08:02;;;;;;;7.13;4.07;;;30.00;90.80;;;;;;5062088;28;20580;-72
2023/08/20 12:10:30;;;;;;;7.90;3.90;;;30.00;90.70;;;;;;5056031;28;20474;-73
2023/08/20 12:12:58;;;;;;;7.50;3.80;;;30.10;90.70;;;;;;5059121;28;20484;-73
2023/08/20 12:15:27;;;;;;;4.43;4.00;;;30.20;90.30;;;;;;5065240;28;20461;-73
2023/08/20 12:18:01;;;;;;;8.50;4.00;;;30.00;90.40;;;;;;5056947;28;20441;-72
2023/08/20 12:20:30;;;;;;;6.63;4.07;;;29.60;90.30;;;;;;5051072;28;20445;-72
2023/08/20 12:23:00;;;;;;;8.03;4.30;;;29.40;90.80;;;;;;5056171;28;20469;-73
2023/08/20 12:25:27;;;;;;;6.17;3.60;;;29.10;91.50;;;;;;5064507;28;20437;-72
2023/08/20 12:27:54;;;;;;;8.13;3.57;;;29.10;91.30;;;;;;5062818;28;20446;-73
2023/08/20 12:30:21;;;;;;;6.20;4.00;;;29.20;91.20;;;;;;5068537;28;20465;-72
2023/08/20 12:32:49;;;;;;;8.70;4.00;;;29.20;90.90;;;;;;5047125;28;20435;-72
2023/08/20 12:35:16;;;;;;;8.43;4.53;;;29.10;90.90;;;;;;5070963;28;20437;-71
2023/08/20 12:37:43;;;;;;;6.73;2.90;;;29.10;91.00;;;;;;5061865;28;20442;-73
2023/08/20 12:40:12;;;;;;;5.70;3.67;;;29.20;90.80;;;;;;5060972;28;20452;-73
2023/08/20 12:42:40;;;;;;;5.70;3.30;;;29.20;91.30;;;;;;5057692;28;20850;-74
2023/08/20 12:45:07;;;;;;;9.00;4.07;;;29.20;91.40;;;;;;5064281;28;20516;-72